URWA 171700Z 30008G13MPS CAVOK 17/07 Q1011 R27/010070 NOSIG RMK QFE760/1014
QNH:(hPa/inHg/mmHg)1011 / 29.85 / 758
QFE:(hPa/inHg/mmHg)1013 / 29.93 / 760
Temperature17
Dew Point7
Visibility> 10000
WeatherCAVOK
Cloud Cover
Transition Altitude3000 ft.
Transition LevelFL50
SQUAWK